sensor_id;sensor_type;location;lat;lon;timestamp;P1;durP1;ratioP1;P2;durP2;ratioP2
24677;SDS011;12800;53.094;8.778;2024-03-06T00:01:34;10.10;;;6.53;;
24677;SDS011;12800;53.094;8.778;2024-03-06T00:03:59;12.60;;;6.63;;
24677;SDS011;12800;53.094;8.778;2024-03-06T00:06:26;8.00;;;5.97;;
24677;SDS011;12800;53.094;8.778;2024-03-06T00:08:52;9.40;;;6.57;;
24677;SDS011;12800;53.094;8.778;2024-03-06T00:11:17;9.63;;;6.33;;
24677;SDS011;12800;53.094;8.778;2024-03-06T00:13:43;8.87;;;7.07;;
24677;SDS011;12800;53.094;8.778;2024-03-06T00:16:09;8.40;;;6.10;;
24677;SDS011;12800;53.094;8.778;2024-03-06T00:18:35;11.00;;;6.60;;
24677;SDS011;12800;53.094;8.778;2024-03-06T00:21:01;9.17;;;6.53;;
24677;SDS011;12800;53.094;8.778;2024-03-06T00:23:26;10.17;;;6.40;;
24677;SDS011;12800;53.094;8.778;2024-03-06T00:25:52;10.63;;;6.50;;
24677;SDS011;12800;53.094;8.778;2024-03-06T00:28:17;8.50;;;6.77;;
24677;SDS011;12800;53.094;8.778;2024-03-06T00:30:43;8.83;;;7.10;;
24677;SDS011;12800;53.094;8.778;2024-03-06T00:33:08;8.57;;;6.43;;
24677;SDS011;12800;53.094;8.778;2024-03-06T00:35:34;9.53;;;6.90;;
24677;SDS011;12800;53.094;8.778;2024-03-06T00:37:59;9.07;;;7.00;;
24677;SDS011;12800;53.094;8.778;2024-03-06T00:40:28;8.67;;;6.80;;
24677;SDS011;12800;53.094;8.778;2024-03-06T00:42:57;10.13;;;7.13;;
24677;SDS011;12800;53.094;8.778;2024-03-06T00:45:23;9.50;;;6.83;;
24677;SDS011;12800;53.094;8.778;2024-03-06T00:47:49;9.63;;;6.53;;
24677;SDS011;12800;53.094;8.778;2024-03-06T00:50:14;10.27;;;6.60;;
24677;SDS011;12800;53.094;8.778;2024-03-06T00:52:42;11.93;;;6.83;;
24677;SDS011;12800;53.094;8.778;2024-03-06T00:55:09;9.50;;;6.10;;
24677;SDS011;12800;53.094;8.778;2024-03-06T00:57:35;9.97;;;6.50;;
24677;SDS011;12800;53.094;8.778;2024-03-06T01:00:02;12.27;;;6.67;;
24677;SDS011;12800;53.094;8.778;2024-03-06T01:02:35;9.10;;;6.50;;
24677;SDS011;12800;53.094;8.778;2024-03-06T01:05:04;10.80;;;6.93;;
24677;SDS011;12800;53.094;8.778;2024-03-06T01:07:32;10.00;;;7.77;;
24677;SDS011;12800;53.094;8.778;2024-03-06T01:09:57;10.23;;;7.03;;
24677;SDS011;12800;53.094;8.778;2024-03-06T01:12:24;11.70;;;6.90;;
24677;SDS011;12800;53.094;8.778;2024-03-06T01:14:50;10.37;;;6.53;;
24677;SDS011;12800;53.094;8.778;2024-03-06T01:17:16;12.07;;;7.43;;
24677;SDS011;12800;53.094;8.778;2024-03-06T01:19:41;9.50;;;6.97;;
24677;SDS011;12800;53.094;8.778;2024-03-06T01:22:10;8.83;;;6.40;;
24677;SDS011;12800;53.094;8.778;2024-03-06T01:24:36;12.33;;;6.93;;
24677;SDS011;12800;53.094;8.778;2024-03-06T01:27:01;10.30;;;6.70;;
24677;SDS011;12800;53.094;8.778;2024-03-06T01:29:30;11.67;;;7.43;;
24677;SDS011;12800;53.094;8.778;2024-03-06T01:31:57;12.80;;;8.00;;
24677;SDS011;12800;53.094;8.778;2024-03-06T01:34:26;12.30;;;7.00;;
24677;SDS011;12800;53.094;8.778;2024-03-06T01:36:52;11.47;;;7.30;;
24677;SDS011;12800;53.094;8.778;2024-03-06T01:39:18;11.13;;;7.47;;
24677;SDS011;12800;53.094;8.778;2024-03-06T01:41:45;9.87;;;6.90;;
24677;SDS011;12800;53.094;8.778;2024-03-06T01:44:11;11.57;;;7.00;;
24677;SDS011;12800;53.094;8.778;2024-03-06T01:46:37;10.37;;;7.27;;
24677;SDS011;12800;53.094;8.778;2024-03-06T01:49:03;10.03;;;7.67;;
24677;SDS011;12800;53.094;8.778;2024-03-06T01:51:29;11.80;;;7.03;;
24677;SDS011;12800;53.094;8.778;2024-03-06T01:53:56;10.70;;;8.03;;
24677;SDS011;12800;53.094;8.778;2024-03-06T01:56:22;13.07;;;7.07;;
24677;SDS011;12800;53.094;8.778;2024-03-06T01:58:48;12.70;;;7.07;;
24677;SDS011;12800;53.094;8.778;2024-03-06T02:01:14;10.70;;;6.83;;
24677;SDS011;12800;53.094;8.778;2024-03-06T02:03:41;11.23;;;7.00;;
24677;SDS011;12800;53.094;8.778;2024-03-06T02:06:07;10.67;;;7.40;;
24677;SDS011;12800;53.094;8.778;2024-03-06T02:08:36;10.33;;;6.93;;
24677;SDS011;12800;53.094;8.778;2024-03-06T02:11:01;11.30;;;6.87;;
24677;SDS011;12800;53.094;8.778;2024-03-06T02:13:28;10.83;;;6.97;;
24677;SDS011;12800;53.094;8.778;2024-03-06T02:15:54;11.20;;;7.03;;
24677;SDS011;12800;53.094;8.778;2024-03-06T02:18:20;11.37;;;7.57;;
24677;SDS011;12800;53.094;8.778;2024-03-06T02:20:58;9.67;;;7.77;;
24677;SDS011;12800;53.094;8.778;2024-03-06T02:23:24;10.77;;;7.60;;
24677;SDS011;12800;53.094;8.778;2024-03-06T02:25:50;10.00;;;7.30;;
24677;SDS011;12800;53.094;8.778;2024-03-06T02:28:16;11.57;;;7.33;;
24677;SDS011;12800;53.094;8.778;2024-03-06T02:30:42;11.03;;;7.53;;
24677;SDS011;12800;53.094;8.778;2024-03-06T02:33:08;11.57;;;8.03;;
24677;SDS011;12800;53.094;8.778;2024-03-06T02:35:34;11.70;;;7.33;;
24677;SDS011;12800;53.094;8.778;2024-03-06T02:38:01;13.00;;;7.20;;
24677;SDS011;12800;53.094;8.778;2024-03-06T02:40:29;10.40;;;7.30;;
24677;SDS011;12800;53.094;8.778;2024-03-06T02:42:56;11.70;;;7.30;;
24677;SDS011;12800;53.094;8.778;2024-03-06T02:45:21;12.83;;;7.77;;
24677;SDS011;12800;53.094;8.778;2024-03-06T02:47:47;13.77;;;7.90;;
24677;SDS011;12800;53.094;8.778;2024-03-06T02:50:13;8.87;;;7.10;;
24677;SDS011;12800;53.094;8.778;2024-03-06T02:52:39;10.00;;;6.90;;
24677;SDS011;12800;53.094;8.778;2024-03-06T02:55:05;12.00;;;7.30;;
24677;SDS011;12800;53.094;8.778;2024-03-06T02:57:31;10.27;;;7.07;;
24677;SDS011;12800;53.094;8.778;2024-03-06T02:59:57;11.03;;;7.57;;
24677;SDS011;12800;53.094;8.778;2024-03-06T03:02:23;8.10;;;6.97;;
24677;SDS011;12800;53.094;8.778;2024-03-06T03:04:49;13.07;;;7.47;;
24677;SDS011;12800;53.094;8.778;2024-03-06T03:07:15;11.37;;;7.20;;
24677;SDS011;12800;53.094;8.778;2024-03-06T03:09:41;11.30;;;7.67;;
24677;SDS011;12800;53.094;8.778;2024-03-06T03:12:06;12.10;;;7.43;;
24677;SDS011;12800;53.094;8.778;2024-03-06T03:14:32;13.10;;;7.63;;
24677;SDS011;12800;53.094;8.778;2024-03-06T03:16:59;11.07;;;7.83;;
24677;SDS011;12800;53.094;8.778;2024-03-06T03:19:28;10.60;;;7.73;;
24677;SDS011;12800;53.094;8.778;2024-03-06T03:21:54;13.37;;;7.33;;
24677;SDS011;12800;53.094;8.778;2024-03-06T03:24:20;11.10;;;7.77;;
24677;SDS011;12800;53.094;8.778;2024-03-06T03:26:46;9.33;;;7.27;;
24677;SDS011;12800;53.094;8.778;2024-03-06T03:29:12;9.97;;;7.30;;
24677;SDS011;12800;53.094;8.778;2024-03-06T03:31:37;13.40;;;7.57;;
24677;SDS011;12800;53.094;8.778;2024-03-06T03:34:03;11.57;;;8.33;;
24677;SDS011;12800;53.094;8.778;2024-03-06T03:36:30;10.90;;;6.90;;
24677;SDS011;12800;53.094;8.778;2024-03-06T03:38:56;10.43;;;7.30;;
24677;SDS011;12800;53.094;8.778;2024-03-06T03:41:21;10.73;;;6.80;;
24677;SDS011;12800;53.094;8.778;2024-03-06T03:43:47;10.63;;;6.87;;
24677;SDS011;12800;53.094;8.778;2024-03-06T03:46:14;12.50;;;8.03;;
24677;SDS011;12800;53.094;8.778;2024-03-06T03:48:39;12.90;;;8.00;;
24677;SDS011;12800;53.094;8.778;2024-03-06T03:51:05;10.03;;;7.03;;
24677;SDS011;12800;53.094;8.778;2024-03-06T03:53:32;12.13;;;7.20;;
24677;SDS011;12800;53.094;8.778;2024-03-06T03:55:58;11.27;;;8.30;;
24677;SDS011;12800;53.094;8.778;2024-03-06T03:58:24;10.90;;;7.00;;
24677;SDS011;12800;53.094;8.778;2024-03-06T04:00:50;10.73;;;7.77;;
24677;SDS011;12800;53.094;8.778;2024-03-06T04:03:18;11.53;;;7.73;;
24677;SDS011;12800;53.094;8.778;2024-03-06T04:05:45;9.90;;;7.53;;
24677;SDS011;12800;53.094;8.778;2024-03-06T04:08:11;10.83;;;7.60;;
24677;SDS011;12800;53.094;8.778;2024-03-06T04:10:38;12.00;;;7.90;;
24677;SDS011;12800;53.094;8.778;2024-03-06T04:13:03;9.63;;;7.57;;
24677;SDS011;12800;53.094;8.778;2024-03-06T04:15:29;11.03;;;7.57;;
24677;SDS011;12800;53.094;8.778;2024-03-06T04:17:55;12.77;;;8.40;;
24677;SDS011;12800;53.094;8.778;2024-03-06T04:20:21;12.50;;;7.27;;
24677;SDS011;12800;53.094;8.778;2024-03-06T04:22:46;13.27;;;7.83;;
24677;SDS011;12800;53.094;8.778;2024-03-06T04:25:13;12.67;;;7.90;;
24677;SDS011;12800;53.094;8.778;2024-03-06T04:27:39;10.73;;;7.17;;
24677;SDS011;12800;53.094;8.778;2024-03-06T04:30:04;11.73;;;7.83;;
24677;SDS011;12800;53.094;8.778;2024-03-06T04:32:30;12.50;;;7.83;;
24677;SDS011;12800;53.094;8.778;2024-03-06T04:34:56;12.20;;;7.77;;
24677;SDS011;12800;53.094;8.778;2024-03-06T04:37:21;14.50;;;7.17;;
24677;SDS011;12800;53.094;8.778;2024-03-06T04:39:47;11.70;;;7.63;;
24677;SDS011;12800;53.094;8.778;2024-03-06T04:42:13;11.47;;;7.53;;
24677;SDS011;12800;53.094;8.778;2024-03-06T04:44:39;9.90;;;7.30;;
24677;SDS011;12800;53.094;8.778;2024-03-06T04:47:04;13.17;;;7.70;;
24677;SDS011;12800;53.094;8.778;2024-03-06T04:49:33;10.33;;;7.07;;
24677;SDS011;12800;53.094;8.778;2024-03-06T04:51:59;11.23;;;7.70;;
24677;SDS011;12800;53.094;8.778;2024-03-06T04:54:26;10.70;;;7.60;;
24677;SDS011;12800;53.094;8.778;2024-03-06T04:56:51;12.50;;;7.70;;
24677;SDS011;12800;53.094;8.778;2024-03-06T04:59:17;12.97;;;7.73;;
24677;SDS011;12800;53.094;8.778;2024-03-06T05:01:43;9.77;;;7.07;;
24677;SDS011;12800;53.094;8.778;2024-03-06T05:04:09;11.20;;;7.77;;
24677;SDS011;12800;53.094;8.778;2024-03-06T05:06:36;17.83;;;10.03;;
24677;SDS011;12800;53.094;8.778;2024-03-06T05:09:02;19.90;;;10.60;;
24677;SDS011;12800;53.094;8.778;2024-03-06T05:11:29;11.03;;;7.67;;
24677;SDS011;12800;53.094;8.778;2024-03-06T05:13:55;19.10;;;9.70;;
24677;SDS011;12800;53.094;8.778;2024-03-06T05:16:22;16.50;;;9.67;;
24677;SDS011;12800;53.094;8.778;2024-03-06T05:18:49;12.63;;;7.70;;
24677;SDS011;12800;53.094;8.778;2024-03-06T05:21:14;9.90;;;7.07;;
24677;SDS011;12800;53.094;8.778;2024-03-06T05:23:41;11.70;;;7.73;;
24677;SDS011;12800;53.094;8.778;2024-03-06T05:26:06;14.00;;;7.33;;
24677;SDS011;12800;53.094;8.778;2024-03-06T05:28:32;11.03;;;7.23;;
24677;SDS011;12800;53.094;8.778;2024-03-06T05:30:58;10.10;;;7.13;;
24677;SDS011;12800;53.094;8.778;2024-03-06T05:33:25;10.87;;;7.57;;
24677;SDS011;12800;53.094;8.778;2024-03-06T05:35:53;12.93;;;7.60;;
24677;SDS011;12800;53.094;8.778;2024-03-06T05:38:19;10.53;;;7.87;;
24677;SDS011;12800;53.094;8.778;2024-03-06T05:40:44;12.50;;;8.07;;
24677;SDS011;12800;53.094;8.778;2024-03-06T05:43:10;11.30;;;7.10;;
24677;SDS011;12800;53.094;8.778;2024-03-06T05:45:36;18.87;;;12.27;;
24677;SDS011;12800;53.094;8.778;2024-03-06T05:48:01;15.30;;;9.63;;
24677;SDS011;12800;53.094;8.778;2024-03-06T05:50:29;14.97;;;9.10;;
24677;SDS011;12800;53.094;8.778;2024-03-06T05:52:55;14.07;;;8.43;;
24677;SDS011;12800;53.094;8.778;2024-03-06T05:55:22;12.70;;;8.10;;
24677;SDS011;12800;53.094;8.778;2024-03-06T05:57:48;21.03;;;10.67;;
24677;SDS011;12800;53.094;8.778;2024-03-06T06:00:14;17.13;;;9.70;;
24677;SDS011;12800;53.094;8.778;2024-03-06T06:02:43;20.03;;;10.00;;
24677;SDS011;12800;53.094;8.778;2024-03-06T06:05:10;15.33;;;9.03;;
24677;SDS011;12800;53.094;8.778;2024-03-06T06:07:36;14.97;;;8.73;;
24677;SDS011;12800;53.094;8.778;2024-03-06T06:10:03;17.87;;;9.77;;
24677;SDS011;12800;53.094;8.778;2024-03-06T06:12:31;16.27;;;9.30;;
24677;SDS011;12800;53.094;8.778;2024-03-06T06:14:56;14.77;;;8.20;;
24677;SDS011;12800;53.094;8.778;2024-03-06T06:17:22;11.67;;;7.67;;
24677;SDS011;12800;53.094;8.778;2024-03-06T06:19:48;13.50;;;8.30;;
24677;SDS011;12800;53.094;8.778;2024-03-06T06:22:13;11.67;;;7.43;;
24677;SDS011;12800;53.094;8.778;2024-03-06T06:24:39;11.10;;;7.77;;
24677;SDS011;12800;53.094;8.778;2024-03-06T06:27:05;10.67;;;7.20;;
24677;SDS011;12800;53.094;8.778;2024-03-06T06:29:31;11.97;;;8.33;;
24677;SDS011;12800;53.094;8.778;2024-03-06T06:31:57;13.07;;;7.43;;
24677;SDS011;12800;53.094;8.778;2024-03-06T06:34:22;14.70;;;8.77;;
24677;SDS011;12800;53.094;8.778;2024-03-06T06:36:50;14.43;;;7.90;;
24677;SDS011;12800;53.094;8.778;2024-03-06T06:39:17;13.57;;;8.50;;
24677;SDS011;12800;53.094;8.778;2024-03-06T06:41:43;14.37;;;7.93;;
24677;SDS011;12800;53.094;8.778;2024-03-06T06:44:09;13.13;;;7.83;;
24677;SDS011;12800;53.094;8.778;2024-03-06T06:46:34;52.47;;;27.67;;
24677;SDS011;12800;53.094;8.778;2024-03-06T06:49:00;20.07;;;13.13;;
24677;SDS011;12800;53.094;8.778;2024-03-06T06:51:25;10.97;;;7.70;;
24677;SDS011;12800;53.094;8.778;2024-03-06T06:53:51;12.40;;;8.17;;
24677;SDS011;12800;53.094;8.778;2024-03-06T06:56:16;11.77;;;8.17;;
24677;SDS011;12800;53.094;8.778;2024-03-06T06:58:42;15.27;;;7.87;;
24677;SDS011;12800;53.094;8.778;2024-03-06T07:01:08;11.13;;;8.00;;
24677;SDS011;12800;53.094;8.778;2024-03-06T07:03:35;15.40;;;8.03;;
24677;SDS011;12800;53.094;8.778;2024-03-06T07:06:00;14.17;;;7.80;;
24677;SDS011;12800;53.094;8.778;2024-03-06T07:08:28;12.37;;;8.13;;
24677;SDS011;12800;53.094;8.778;2024-03-06T07:10:54;12.33;;;7.93;;
24677;SDS011;12800;53.094;8.778;2024-03-06T07:13:20;12.40;;;8.00;;
24677;SDS011;12800;53.094;8.778;2024-03-06T07:15:46;13.07;;;8.83;;
24677;SDS011;12800;53.094;8.778;2024-03-06T07:18:11;11.67;;;7.73;;
24677;SDS011;12800;53.094;8.778;2024-03-06T07:20:39;11.80;;;7.90;;
24677;SDS011;12800;53.094;8.778;2024-03-06T07:23:06;12.60;;;8.33;;
24677;SDS011;12800;53.094;8.778;2024-03-06T07:25:31;12.50;;;8.40;;
24677;SDS011;12800;53.094;8.778;2024-03-06T07:27:57;12.30;;;8.73;;
24677;SDS011;12800;53.094;8.778;2024-03-06T07:30:23;11.80;;;8.30;;
24677;SDS011;12800;53.094;8.778;2024-03-06T07:32:48;11.13;;;7.27;;
24677;SDS011;12800;53.094;8.778;2024-03-06T07:35:14;12.97;;;7.93;;
24677;SDS011;12800;53.094;8.778;2024-03-06T07:37:40;17.20;;;8.60;;
24677;SDS011;12800;53.094;8.778;2024-03-06T07:40:08;11.43;;;7.70;;
24677;SDS011;12800;53.094;8.778;2024-03-06T07:42:34;14.57;;;8.10;;
24677;SDS011;12800;53.094;8.778;2024-03-06T07:45:00;15.47;;;8.63;;
24677;SDS011;12800;53.094;8.778;2024-03-06T07:47:25;12.93;;;8.53;;
24677;SDS011;12800;53.094;8.778;2024-03-06T07:49:51;12.47;;;8.03;;
24677;SDS011;12800;53.094;8.778;2024-03-06T07:52:17;14.17;;;8.73;;
24677;SDS011;12800;53.094;8.778;2024-03-06T07:54:43;15.67;;;9.10;;
24677;SDS011;12800;53.094;8.778;2024-03-06T07:57:08;9.87;;;7.13;;
24677;SDS011;12800;53.094;8.778;2024-03-06T07:59:35;11.23;;;7.90;;
24677;SDS011;12800;53.094;8.778;2024-03-06T08:02:00;13.33;;;8.03;;
24677;SDS011;12800;53.094;8.778;2024-03-06T08:04:26;14.97;;;8.23;;
24677;SDS011;12800;53.094;8.778;2024-03-06T08:06:52;15.37;;;8.50;;
24677;SDS011;12800;53.094;8.778;2024-03-06T08:09:17;11.90;;;8.37;;
24677;SDS011;12800;53.094;8.778;2024-03-06T08:11:44;13.87;;;8.50;;
24677;SDS011;12800;53.094;8.778;2024-03-06T08:14:10;12.83;;;8.40;;
24677;SDS011;12800;53.094;8.778;2024-03-06T08:16:36;13.40;;;8.90;;
24677;SDS011;12800;53.094;8.778;2024-03-06T08:19:02;12.37;;;8.53;;
24677;SDS011;12800;53.094;8.778;2024-03-06T08:21:28;12.63;;;8.17;;
24677;SDS011;12800;53.094;8.778;2024-03-06T08:23:54;11.27;;;8.37;;
24677;SDS011;12800;53.094;8.778;2024-03-06T08:26:20;14.03;;;8.47;;
24677;SDS011;12800;53.094;8.778;2024-03-06T08:28:45;10.17;;;8.33;;
24677;SDS011;12800;53.094;8.778;2024-03-06T08:31:11;15.40;;;8.30;;
24677;SDS011;12800;53.094;8.778;2024-03-06T08:33:37;12.50;;;8.17;;
24677;SDS011;12800;53.094;8.778;2024-03-06T08:36:03;13.77;;;8.53;;
24677;SDS011;12800;53.094;8.778;2024-03-06T08:38:29;13.93;;;8.70;;
24677;SDS011;12800;53.094;8.778;2024-03-06T08:40:54;11.43;;;7.83;;
24677;SDS011;12800;53.094;8.778;2024-03-06T08:43:20;13.23;;;8.30;;
24677;SDS011;12800;53.094;8.778;2024-03-06T08:45:46;13.80;;;8.53;;
24677;SDS011;12800;53.094;8.778;2024-03-06T08:48:11;10.67;;;7.97;;
24677;SDS011;12800;53.094;8.778;2024-03-06T08:50:38;13.47;;;8.83;;
24677;SDS011;12800;53.094;8.778;2024-03-06T08:53:04;11.77;;;8.60;;
24677;SDS011;12800;53.094;8.778;2024-03-06T08:55:29;12.47;;;9.20;;
24677;SDS011;12800;53.094;8.778;2024-03-06T08:57:55;15.30;;;8.13;;
24677;SDS011;12800;53.094;8.778;2024-03-06T09:00:20;11.57;;;7.97;;
24677;SDS011;12800;53.094;8.778;2024-03-06T09:02:46;13.40;;;8.83;;
24677;SDS011;12800;53.094;8.778;2024-03-06T09:05:12;12.47;;;8.27;;
24677;SDS011;12800;53.094;8.778;2024-03-06T09:07:41;13.13;;;9.03;;
24677;SDS011;12800;53.094;8.778;2024-03-06T09:10:07;11.70;;;8.03;;
24677;SDS011;12800;53.094;8.778;2024-03-06T09:12:34;13.57;;;9.03;;
24677;SDS011;12800;53.094;8.778;2024-03-06T09:15:03;12.87;;;8.13;;
24677;SDS011;12800;53.094;8.778;2024-03-06T09:17:32;10.50;;;8.03;;
24677;SDS011;12800;53.094;8.778;2024-03-06T09:19:57;12.63;;;8.83;;
24677;SDS011;12800;53.094;8.778;2024-03-06T09:22:23;11.90;;;8.27;;
24677;SDS011;12800;53.094;8.778;2024-03-06T09:24:49;14.07;;;8.53;;
24677;SDS011;12800;53.094;8.778;2024-03-06T09:27:15;14.43;;;8.17;;
24677;SDS011;12800;53.094;8.778;2024-03-06T09:29:41;15.63;;;8.77;;
24677;SDS011;12800;53.094;8.778;2024-03-06T09:32:08;15.07;;;8.73;;
24677;SDS011;12800;53.094;8.778;2024-03-06T09:34:33;13.83;;;8.17;;
24677;SDS011;12800;53.094;8.778;2024-03-06T09:36:59;13.83;;;8.20;;
24677;SDS011;12800;53.094;8.778;2024-03-06T09:39:25;14.83;;;8.50;;
24677;SDS011;12800;53.094;8.778;2024-03-06T09:41:51;12.83;;;8.90;;
24677;SDS011;12800;53.094;8.778;2024-03-06T09:44:18;14.57;;;8.90;;
24677;SDS011;12800;53.094;8.778;2024-03-06T09:46:46;14.23;;;8.20;;
24677;SDS011;12800;53.094;8.778;2024-03-06T09:49:14;12.47;;;9.27;;
24677;SDS011;12800;53.094;8.778;2024-03-06T09:51:42;11.03;;;7.90;;
24677;SDS011;12800;53.094;8.778;2024-03-06T09:54:10;12.70;;;8.93;;
24677;SDS011;12800;53.094;8.778;2024-03-06T09:56:40;12.67;;;8.67;;
24677;SDS011;12800;53.094;8.778;2024-03-06T09:59:10;14.07;;;9.17;;
24677;SDS011;12800;53.094;8.778;2024-03-06T10:01:39;15.27;;;9.33;;
24677;SDS011;12800;53.094;8.778;2024-03-06T10:04:26;12.60;;;8.80;;
24677;SDS011;12800;53.094;8.778;2024-03-06T10:06:55;16.07;;;9.30;;
24677;SDS011;12800;53.094;8.778;2024-03-06T10:09:23;14.23;;;9.40;;
24677;SDS011;12800;53.094;8.778;2024-03-06T10:11:49;14.47;;;9.10;;
24677;SDS011;12800;53.094;8.778;2024-03-06T10:14:17;14.27;;;9.43;;
24677;SDS011;12800;53.094;8.778;2024-03-06T10:16:53;16.53;;;10.23;;
24677;SDS011;12800;53.094;8.778;2024-03-06T10:19:21;14.87;;;9.03;;
24677;SDS011;12800;53.094;8.778;2024-03-06T10:21:48;13.97;;;9.30;;
24677;SDS011;12800;53.094;8.778;2024-03-06T10:24:20;21.43;;;12.83;;
24677;SDS011;12800;53.094;8.778;2024-03-06T10:26:49;13.57;;;9.70;;
24677;SDS011;12800;53.094;8.778;2024-03-06T10:29:18;15.90;;;9.97;;
24677;SDS011;12800;53.094;8.778;2024-03-06T10:31:57;14.47;;;10.00;;
24677;SDS011;12800;53.094;8.778;2024-03-06T10:34:24;17.43;;;9.83;;
24677;SDS011;12800;53.094;8.778;2024-03-06T10:36:53;14.87;;;10.30;;
24677;SDS011;12800;53.094;8.778;2024-03-06T10:39:20;14.33;;;9.57;;
24677;SDS011;12800;53.094;8.778;2024-03-06T10:41:51;13.33;;;9.67;;
24677;SDS011;12800;53.094;8.778;2024-03-06T10:44:23;16.43;;;10.23;;
24677;SDS011;12800;53.094;8.778;2024-03-06T10:46:56;14.27;;;9.27;;
24677;SDS011;12800;53.094;8.778;2024-03-06T10:49:25;17.30;;;11.03;;
24677;SDS011;12800;53.094;8.778;2024-03-06T10:51:52;16.70;;;10.83;;
24677;SDS011;12800;53.094;8.778;2024-03-06T10:54:22;13.63;;;10.27;;
24677;SDS011;12800;53.094;8.778;2024-03-06T10:56:51;15.00;;;10.20;;
24677;SDS011;12800;53.094;8.778;2024-03-06T10:59:18;15.00;;;10.33;;
24677;SDS011;12800;53.094;8.778;2024-03-06T11:01:45;16.67;;;10.53;;
24677;SDS011;12800;53.094;8.778;2024-03-06T11:04:12;15.67;;;10.37;;
24677;SDS011;12800;53.094;8.778;2024-03-06T11:06:40;13.67;;;9.97;;
24677;SDS011;12800;53.094;8.778;2024-03-06T11:09:06;17.70;;;11.03;;
24677;SDS011;12800;53.094;8.778;2024-03-06T11:11:39;17.10;;;11.17;;
24677;SDS011;12800;53.094;8.778;2024-03-06T11:14:21;14.97;;;10.83;;
24677;SDS011;12800;53.094;8.778;2024-03-06T11:19:29;16.57;;;11.53;;
24677;SDS011;12800;53.094;8.778;2024-03-06T11:21:55;20.63;;;11.57;;
24677;SDS011;12800;53.094;8.778;2024-03-06T11:24:42;17.57;;;11.53;;
24677;SDS011;12800;53.094;8.778;2024-03-06T11:27:07;24.97;;;16.03;;
24677;SDS011;12800;53.094;8.778;2024-03-06T11:32:57;17.03;;;11.63;;
24677;SDS011;12800;53.094;8.778;2024-03-06T11:35:29;14.33;;;10.53;;
24677;SDS011;12800;53.094;8.778;2024-03-06T11:37:55;18.17;;;11.30;;
24677;SDS011;12800;53.094;8.778;2024-03-06T11:40:24;16.57;;;11.43;;
24677;SDS011;12800;53.094;8.778;2024-03-06T11:42:50;17.87;;;11.87;;
24677;SDS011;12800;53.094;8.778;2024-03-06T11:45:16;25.57;;;12.60;;
24677;SDS011;12800;53.094;8.778;2024-03-06T11:50:27;17.57;;;11.23;;
24677;SDS011;12800;53.094;8.778;2024-03-06T11:52:53;17.77;;;10.93;;
24677;SDS011;12800;53.094;8.778;2024-03-06T11:55:22;18.73;;;10.83;;
24677;SDS011;12800;53.094;8.778;2024-03-06T11:57:50;15.73;;;11.00;;
24677;SDS011;12800;53.094;8.778;2024-03-06T12:00:16;16.97;;;11.47;;
24677;SDS011;12800;53.094;8.778;2024-03-06T12:02:42;15.53;;;11.10;;
24677;SDS011;12800;53.094;8.778;2024-03-06T12:05:11;19.30;;;11.37;;
24677;SDS011;12800;53.094;8.778;2024-03-06T12:07:52;17.00;;;10.50;;
24677;SDS011;12800;53.094;8.778;2024-03-06T12:10:17;16.40;;;10.17;;
24677;SDS011;12800;53.094;8.778;2024-03-06T12:12:43;16.10;;;10.27;;
24677;SDS011;12800;53.094;8.778;2024-03-06T12:15:10;16.73;;;10.87;;
24677;SDS011;12800;53.094;8.778;2024-03-06T12:17:46;17.23;;;10.77;;
24677;SDS011;12800;53.094;8.778;2024-03-06T12:20:13;18.13;;;10.10;;
24677;SDS011;12800;53.094;8.778;2024-03-06T12:22:44;13.87;;;9.93;;
24677;SDS011;12800;53.094;8.778;2024-03-06T12:25:10;14.73;;;9.90;;
24677;SDS011;12800;53.094;8.778;2024-03-06T12:27:35;15.47;;;9.83;;
24677;SDS011;12800;53.094;8.778;2024-03-06T12:30:01;19.00;;;10.67;;
24677;SDS011;12800;53.094;8.778;2024-03-06T12:32:32;14.60;;;10.07;;
24677;SDS011;12800;53.094;8.778;2024-03-06T12:34:59;13.33;;;9.57;;
24677;SDS011;12800;53.094;8.778;2024-03-06T12:37:33;15.13;;;10.77;;
24677;SDS011;12800;53.094;8.778;2024-03-06T12:40:00;15.90;;;10.37;;
24677;SDS011;12800;53.094;8.778;2024-03-06T12:42:26;12.53;;;9.60;;
24677;SDS011;12800;53.094;8.778;2024-03-06T12:44:51;16.13;;;9.77;;
24677;SDS011;12800;53.094;8.778;2024-03-06T12:47:17;14.70;;;10.87;;
24677;SDS011;12800;53.094;8.778;2024-03-06T12:49:42;23.23;;;14.77;;
24677;SDS011;12800;53.094;8.778;2024-03-06T12:52:08;17.60;;;9.93;;
24677;SDS011;12800;53.094;8.778;2024-03-06T12:54:34;12.93;;;9.57;;
24677;SDS011;12800;53.094;8.778;2024-03-06T12:57:00;15.87;;;9.83;;
24677;SDS011;12800;53.094;8.778;2024-03-06T12:59:25;14.87;;;9.50;;
24677;SDS011;12800;53.094;8.778;2024-03-06T13:01:51;12.63;;;10.10;;
24677;SDS011;12800;53.094;8.778;2024-03-06T13:04:17;14.83;;;10.23;;
24677;SDS011;12800;53.094;8.778;2024-03-06T13:06:43;16.77;;;10.30;;
24677;SDS011;12800;53.094;8.778;2024-03-06T13:09:10;16.40;;;10.20;;
24677;SDS011;12800;53.094;8.778;2024-03-06T13:11:35;14.17;;;10.47;;
24677;SDS011;12800;53.094;8.778;2024-03-06T13:14:01;15.53;;;11.43;;
24677;SDS011;12800;53.094;8.778;2024-03-06T13:16:27;16.53;;;10.20;;
24677;SDS011;12800;53.094;8.778;2024-03-06T13:18:52;17.20;;;11.07;;
24677;SDS011;12800;53.094;8.778;2024-03-06T13:21:21;19.87;;;10.47;;
24677;SDS011;12800;53.094;8.778;2024-03-06T13:23:47;16.70;;;10.37;;
24677;SDS011;12800;53.094;8.778;2024-03-06T13:26:13;14.60;;;10.40;;
24677;SDS011;12800;53.094;8.778;2024-03-06T13:28:39;19.53;;;10.40;;
24677;SDS011;12800;53.094;8.778;2024-03-06T13:31:04;16.97;;;10.30;;
24677;SDS011;12800;53.094;8.778;2024-03-06T13:33:33;20.20;;;11.00;;
24677;SDS011;12800;53.094;8.778;2024-03-06T13:35:58;21.90;;;11.00;;
24677;SDS011;12800;53.094;8.778;2024-03-06T13:38:24;18.53;;;11.53;;
24677;SDS011;12800;53.094;8.778;2024-03-06T13:40:50;18.50;;;10.90;;
24677;SDS011;12800;53.094;8.778;2024-03-06T13:43:15;15.30;;;10.67;;
24677;SDS011;12800;53.094;8.778;2024-03-06T13:45:50;16.83;;;12.03;;
24677;SDS011;12800;53.094;8.778;2024-03-06T13:48:16;18.67;;;12.17;;
24677;SDS011;12800;53.094;8.778;2024-03-06T13:50:45;19.40;;;10.97;;
24677;SDS011;12800;53.094;8.778;2024-03-06T13:53:11;19.17;;;11.67;;
24677;SDS011;12800;53.094;8.778;2024-03-06T13:55:37;19.63;;;11.97;;
24677;SDS011;12800;53.094;8.778;2024-03-06T13:58:03;16.37;;;11.07;;
24677;SDS011;12800;53.094;8.778;2024-03-06T14:00:29;16.77;;;11.47;;
24677;SDS011;12800;53.094;8.778;2024-03-06T14:02:55;17.53;;;11.57;;
24677;SDS011;12800;53.094;8.778;2024-03-06T14:05:20;21.40;;;12.43;;
24677;SDS011;12800;53.094;8.778;2024-03-06T14:07:53;17.93;;;12.20;;
24677;SDS011;12800;53.094;8.778;2024-03-06T14:10:20;18.30;;;11.20;;
24677;SDS011;12800;53.094;8.778;2024-03-06T14:12:49;21.67;;;10.97;;
24677;SDS011;12800;53.094;8.778;2024-03-06T14:15:19;14.93;;;10.73;;
24677;SDS011;12800;53.094;8.778;2024-03-06T14:17:45;16.80;;;11.33;;
24677;SDS011;12800;53.094;8.778;2024-03-06T14:20:11;14.87;;;10.80;;
24677;SDS011;12800;53.094;8.778;2024-03-06T14:22:43;18.03;;;11.10;;
24677;SDS011;12800;53.094;8.778;2024-03-06T14:25:09;16.93;;;10.77;;
24677;SDS011;12800;53.094;8.778;2024-03-06T14:27:35;15.52;;;11.40;;
24677;SDS011;12800;53.094;8.778;2024-03-06T14:30:02;18.35;;;11.68;;
24677;SDS011;12800;53.094;8.778;2024-03-06T14:32:35;34.00;;;11.87;;
24677;SDS011;12800;53.094;8.778;2024-03-06T14:35:01;17.47;;;10.60;;
24677;SDS011;12800;53.094;8.778;2024-03-06T14:37:26;14.90;;;11.73;;
24677;SDS011;12800;53.094;8.778;2024-03-06T14:39:53;15.47;;;10.57;;